sensor_id;sensor_type;location;lat;lon;timestamp;P1;durP1;ratioP1;P2;durP2;ratioP2
21503;SDS011;10913;51.992;9.228;2023-07-16T00:01:55;3.90;;;3.58;;
21503;SDS011;10913;51.992;9.228;2023-07-16T00:04:21;3.85;;;3.45;;
21503;SDS011;10913;51.992;9.228;2023-07-16T00:06:46;3.80;;;3.50;;
21503;SDS011;10913;51.992;9.228;2023-07-16T00:09:12;3.90;;;3.42;;
21503;SDS011;10913;51.992;9.228;2023-07-16T00:11:37;5.47;;;3.72;;
21503;SDS011;10913;51.992;9.228;2023-07-16T00:14:03;3.58;;;3.25;;
21503;SDS011;10913;51.992;9.228;2023-07-16T00:16:31;3.60;;;3.30;;
21503;SDS011;10913;51.992;9.228;2023-07-16T00:18:56;5.20;;;3.50;;
21503;SDS011;10913;51.992;9.228;2023-07-16T00:21:21;3.72;;;3.30;;
21503;SDS011;10913;51.992;9.228;2023-07-16T00:23:47;2.92;;;2.65;;
21503;SDS011;10913;51.992;9.228;2023-07-16T00:26:12;3.55;;;3.00;;
21503;SDS011;10913;51.992;9.228;2023-07-16T00:28:38;3.03;;;2.72;;
21503;SDS011;10913;51.992;9.228;2023-07-16T00:31:04;2.53;;;2.33;;
21503;SDS011;10913;51.992;9.228;2023-07-16T00:33:29;2.78;;;2.20;;
21503;SDS011;10913;51.992;9.228;2023-07-16T00:35:55;2.60;;;1.90;;
21503;SDS011;10913;51.992;9.228;2023-07-16T00:38:20;2.50;;;1.80;;
21503;SDS011;10913;51.992;9.228;2023-07-16T00:40:46;1.80;;;1.70;;
21503;SDS011;10913;51.992;9.228;2023-07-16T00:43:12;2.17;;;1.55;;
21503;SDS011;10913;51.992;9.228;2023-07-16T00:45:38;1.73;;;1.55;;
21503;SDS011;10913;51.992;9.228;2023-07-16T00:48:05;1.60;;;1.50;;
21503;SDS011;10913;51.992;9.228;2023-07-16T00:50:32;2.28;;;1.60;;
21503;SDS011;10913;51.992;9.228;2023-07-16T00:53:00;1.75;;;1.48;;
21503;SDS011;10913;51.992;9.228;2023-07-16T00:55:26;1.60;;;1.50;;
21503;SDS011;10913;51.992;9.228;2023-07-16T00:57:53;1.77;;;1.50;;
21503;SDS011;10913;51.992;9.228;2023-07-16T01:00:21;1.75;;;1.50;;
21503;SDS011;10913;51.992;9.228;2023-07-16T01:02:46;2.17;;;1.55;;
21503;SDS011;10913;51.992;9.228;2023-07-16T01:05:12;1.85;;;1.40;;
21503;SDS011;10913;51.992;9.228;2023-07-16T01:07:37;1.95;;;1.42;;
21503;SDS011;10913;51.992;9.228;2023-07-16T01:10:14;3.05;;;1.60;;
21503;SDS011;10913;51.992;9.228;2023-07-16T01:12:39;2.35;;;1.38;;
21503;SDS011;10913;51.992;9.228;2023-07-16T01:15:05;2.75;;;1.52;;
21503;SDS011;10913;51.992;9.228;2023-07-16T01:17:31;2.03;;;1.70;;
21503;SDS011;10913;51.992;9.228;2023-07-16T01:19:56;1.45;;;1.35;;
21503;SDS011;10913;51.992;9.228;2023-07-16T01:22:34;1.83;;;1.42;;
21503;SDS011;10913;51.992;9.228;2023-07-16T01:30:44;2.75;;;1.42;;
21503;SDS011;10913;51.992;9.228;2023-07-16T01:33:10;1.40;;;1.30;;
21503;SDS011;10913;51.992;9.228;2023-07-16T01:35:38;1.65;;;1.40;;
21503;SDS011;10913;51.992;9.228;2023-07-16T01:38:06;1.52;;;1.30;;
21503;SDS011;10913;51.992;9.228;2023-07-16T01:40:33;1.50;;;1.40;;
21503;SDS011;10913;51.992;9.228;2023-07-16T01:42:58;1.65;;;1.50;;
21503;SDS011;10913;51.992;9.228;2023-07-16T01:45:23;2.10;;;1.30;;
21503;SDS011;10913;51.992;9.228;2023-07-16T01:47:51;2.75;;;1.75;;
21503;SDS011;10913;51.992;9.228;2023-07-16T01:50:26;1.77;;;1.40;;
21503;SDS011;10913;51.992;9.228;2023-07-16T01:52:51;2.63;;;1.50;;
21503;SDS011;10913;51.992;9.228;2023-07-16T01:55:17;1.60;;;1.50;;
21503;SDS011;10913;51.992;9.228;2023-07-16T01:57:42;3.00;;;1.65;;
21503;SDS011;10913;51.992;9.228;2023-07-16T02:00:07;3.78;;;1.52;;
21503;SDS011;10913;51.992;9.228;2023-07-16T02:02:33;3.67;;;1.60;;
21503;SDS011;10913;51.992;9.228;2023-07-16T02:04:59;2.05;;;1.60;;
21503;SDS011;10913;51.992;9.228;2023-07-16T02:07:24;2.15;;;1.60;;
21503;SDS011;10913;51.992;9.228;2023-07-16T02:09:49;2.20;;;1.60;;
21503;SDS011;10913;51.992;9.228;2023-07-16T02:12:15;2.17;;;1.70;;
21503;SDS011;10913;51.992;9.228;2023-07-16T02:14:40;3.92;;;1.90;;
21503;SDS011;10913;51.992;9.228;2023-07-16T02:17:06;1.95;;;1.73;;
21503;SDS011;10913;51.992;9.228;2023-07-16T02:19:31;2.92;;;1.90;;
21503;SDS011;10913;51.992;9.228;2023-07-16T02:21:56;3.40;;;1.55;;
21503;SDS011;10913;51.992;9.228;2023-07-16T02:24:22;2.97;;;1.95;;
21503;SDS011;10913;51.992;9.228;2023-07-16T02:26:47;2.58;;;1.70;;
21503;SDS011;10913;51.992;9.228;2023-07-16T02:29:13;2.78;;;1.83;;
21503;SDS011;10913;51.992;9.228;2023-07-16T02:31:38;2.47;;;1.80;;
21503;SDS011;10913;51.992;9.228;2023-07-16T02:34:03;3.28;;;1.80;;
21503;SDS011;10913;51.992;9.228;2023-07-16T02:36:29;2.25;;;1.80;;
21503;SDS011;10913;51.992;9.228;2023-07-16T02:38:54;2.13;;;1.80;;
21503;SDS011;10913;51.992;9.228;2023-07-16T02:41:20;3.40;;;2.00;;
21503;SDS011;10913;51.992;9.228;2023-07-16T02:43:45;3.92;;;1.83;;
21503;SDS011;10913;51.992;9.228;2023-07-16T02:46:11;3.63;;;1.88;;
21503;SDS011;10913;51.992;9.228;2023-07-16T02:48:37;2.75;;;1.60;;
21503;SDS011;10913;51.992;9.228;2023-07-16T02:51:02;3.53;;;1.98;;
21503;SDS011;10913;51.992;9.228;2023-07-16T02:53:28;4.53;;;2.00;;
21503;SDS011;10913;51.992;9.228;2023-07-16T02:55:53;2.38;;;1.70;;
21503;SDS011;10913;51.992;9.228;2023-07-16T02:58:19;3.03;;;1.77;;
21503;SDS011;10913;51.992;9.228;2023-07-16T03:00:44;2.22;;;1.95;;
21503;SDS011;10913;51.992;9.228;2023-07-16T03:03:09;2.53;;;2.00;;
21503;SDS011;10913;51.992;9.228;2023-07-16T03:05:35;3.85;;;1.98;;
21503;SDS011;10913;51.992;9.228;2023-07-16T03:08:00;3.10;;;2.08;;
21503;SDS011;10913;51.992;9.228;2023-07-16T03:10:25;3.15;;;1.75;;
21503;SDS011;10913;51.992;9.228;2023-07-16T03:12:51;2.42;;;1.80;;
21503;SDS011;10913;51.992;9.228;2023-07-16T03:15:17;3.63;;;1.90;;
21503;SDS011;10913;51.992;9.228;2023-07-16T03:17:42;2.15;;;1.70;;
21503;SDS011;10913;51.992;9.228;2023-07-16T03:20:08;3.55;;;2.10;;
21503;SDS011;10913;51.992;9.228;2023-07-16T03:22:34;3.08;;;1.70;;
21503;SDS011;10913;51.992;9.228;2023-07-16T03:24:59;2.88;;;2.10;;
21503;SDS011;10913;51.992;9.228;2023-07-16T03:27:25;2.90;;;1.90;;
21503;SDS011;10913;51.992;9.228;2023-07-16T03:29:50;2.80;;;2.00;;
21503;SDS011;10913;51.992;9.228;2023-07-16T03:32:16;3.58;;;2.08;;
21503;SDS011;10913;51.992;9.228;2023-07-16T03:34:41;2.60;;;1.80;;
21503;SDS011;10913;51.992;9.228;2023-07-16T03:37:06;3.30;;;2.03;;
21503;SDS011;10913;51.992;9.228;2023-07-16T03:39:32;3.95;;;2.10;;
21503;SDS011;10913;51.992;9.228;2023-07-16T03:41:57;4.55;;;2.00;;
21503;SDS011;10913;51.992;9.228;2023-07-16T03:44:22;2.33;;;1.92;;
21503;SDS011;10913;51.992;9.228;2023-07-16T03:46:48;2.08;;;1.88;;
21503;SDS011;10913;51.992;9.228;2023-07-16T03:49:13;1.90;;;1.70;;
21503;SDS011;10913;51.992;9.228;2023-07-16T03:51:38;3.47;;;1.73;;
21503;SDS011;10913;51.992;9.228;2023-07-16T03:54:04;4.63;;;1.83;;
21503;SDS011;10913;51.992;9.228;2023-07-16T03:56:29;3.33;;;2.10;;
21503;SDS011;10913;51.992;9.228;2023-07-16T03:58:54;5.03;;;2.25;;
21503;SDS011;10913;51.992;9.228;2023-07-16T04:01:20;3.75;;;2.28;;
21503;SDS011;10913;51.992;9.228;2023-07-16T04:03:45;3.13;;;1.80;;
21503;SDS011;10913;51.992;9.228;2023-07-16T04:06:11;4.10;;;1.73;;
21503;SDS011;10913;51.992;9.228;2023-07-16T04:08:37;2.72;;;1.80;;
21503;SDS011;10913;51.992;9.228;2023-07-16T04:11:04;3.67;;;1.80;;
21503;SDS011;10913;51.992;9.228;2023-07-16T04:13:30;2.17;;;1.83;;
21503;SDS011;10913;51.992;9.228;2023-07-16T04:15:56;3.60;;;2.00;;
21503;SDS011;10913;51.992;9.228;2023-07-16T04:18:23;4.28;;;2.00;;
21503;SDS011;10913;51.992;9.228;2023-07-16T04:20:49;2.97;;;1.70;;
21503;SDS011;10913;51.992;9.228;2023-07-16T04:23:15;2.28;;;1.85;;
21503;SDS011;10913;51.992;9.228;2023-07-16T04:25:40;3.28;;;2.17;;
21503;SDS011;10913;51.992;9.228;2023-07-16T04:28:05;3.35;;;2.10;;
21503;SDS011;10913;51.992;9.228;2023-07-16T04:30:31;3.10;;;2.08;;
21503;SDS011;10913;51.992;9.228;2023-07-16T04:32:56;2.97;;;1.85;;
21503;SDS011;10913;51.992;9.228;2023-07-16T04:35:22;7.07;;;2.13;;
21503;SDS011;10913;51.992;9.228;2023-07-16T04:37:47;3.53;;;2.20;;
21503;SDS011;10913;51.992;9.228;2023-07-16T04:40:12;3.72;;;2.10;;
21503;SDS011;10913;51.992;9.228;2023-07-16T04:42:38;5.15;;;2.40;;
21503;SDS011;10913;51.992;9.228;2023-07-16T04:45:04;2.53;;;2.03;;
21503;SDS011;10913;51.992;9.228;2023-07-16T04:47:30;5.10;;;2.22;;
21503;SDS011;10913;51.992;9.228;2023-07-16T04:49:57;2.38;;;2.13;;
21503;SDS011;10913;51.992;9.228;2023-07-16T04:52:23;4.43;;;2.35;;
21503;SDS011;10913;51.992;9.228;2023-07-16T04:54:48;2.70;;;2.20;;
21503;SDS011;10913;51.992;9.228;2023-07-16T04:57:14;4.30;;;2.38;;
21503;SDS011;10913;51.992;9.228;2023-07-16T04:59:39;6.50;;;2.63;;
21503;SDS011;10913;51.992;9.228;2023-07-16T05:02:05;3.78;;;2.50;;
21503;SDS011;10913;51.992;9.228;2023-07-16T05:04:31;3.55;;;2.00;;
21503;SDS011;10913;51.992;9.228;2023-07-16T05:06:57;3.58;;;2.28;;
21503;SDS011;10913;51.992;9.228;2023-07-16T05:09:22;3.17;;;2.22;;
21503;SDS011;10913;51.992;9.228;2023-07-16T05:11:48;2.20;;;1.92;;
21503;SDS011;10913;51.992;9.228;2023-07-16T05:14:13;4.25;;;2.33;;
21503;SDS011;10913;51.992;9.228;2023-07-16T05:16:38;3.63;;;2.10;;
21503;SDS011;10913;51.992;9.228;2023-07-16T05:19:04;5.88;;;2.60;;
21503;SDS011;10913;51.992;9.228;2023-07-16T05:21:29;3.22;;;2.08;;
21503;SDS011;10913;51.992;9.228;2023-07-16T05:23:54;3.97;;;2.05;;
21503;SDS011;10913;51.992;9.228;2023-07-16T05:26:20;3.67;;;2.33;;
21503;SDS011;10913;51.992;9.228;2023-07-16T05:28:45;6.50;;;2.13;;
21503;SDS011;10913;51.992;9.228;2023-07-16T05:31:11;3.58;;;2.30;;
21503;SDS011;10913;51.992;9.228;2023-07-16T05:33:36;3.42;;;2.08;;
21503;SDS011;10913;51.992;9.228;2023-07-16T05:36:01;3.63;;;2.20;;
21503;SDS011;10913;51.992;9.228;2023-07-16T05:38:27;5.28;;;2.55;;
21503;SDS011;10913;51.992;9.228;2023-07-16T05:40:52;4.00;;;2.47;;
21503;SDS011;10913;51.992;9.228;2023-07-16T05:43:18;3.45;;;2.17;;
21503;SDS011;10913;51.992;9.228;2023-07-16T05:45:43;3.13;;;2.38;;
21503;SDS011;10913;51.992;9.228;2023-07-16T05:48:08;4.57;;;2.20;;
21503;SDS011;10913;51.992;9.228;2023-07-16T05:50:34;4.45;;;2.10;;
21503;SDS011;10913;51.992;9.228;2023-07-16T05:52:59;4.22;;;2.00;;
21503;SDS011;10913;51.992;9.228;2023-07-16T05:55:24;4.63;;;2.20;;
21503;SDS011;10913;51.992;9.228;2023-07-16T05:57:50;2.95;;;2.08;;
21503;SDS011;10913;51.992;9.228;2023-07-16T06:00:15;3.38;;;2.10;;
21503;SDS011;10913;51.992;9.228;2023-07-16T06:02:41;4.93;;;2.05;;
21503;SDS011;10913;51.992;9.228;2023-07-16T06:05:06;4.68;;;2.40;;
21503;SDS011;10913;51.992;9.228;2023-07-16T06:07:32;5.07;;;2.30;;
21503;SDS011;10913;51.992;9.228;2023-07-16T06:09:58;6.95;;;2.35;;
21503;SDS011;10913;51.992;9.228;2023-07-16T06:12:23;2.95;;;2.00;;
21503;SDS011;10913;51.992;9.228;2023-07-16T06:14:49;3.42;;;2.10;;
21503;SDS011;10913;51.992;9.228;2023-07-16T06:17:14;2.60;;;1.98;;
21503;SDS011;10913;51.992;9.228;2023-07-16T06:19:40;7.38;;;2.35;;
21503;SDS011;10913;51.992;9.228;2023-07-16T06:22:05;3.25;;;2.00;;
21503;SDS011;10913;51.992;9.228;2023-07-16T06:24:30;3.88;;;2.05;;
21503;SDS011;10913;51.992;9.228;2023-07-16T06:26:56;4.43;;;2.10;;
21503;SDS011;10913;51.992;9.228;2023-07-16T06:29:21;4.65;;;2.25;;
21503;SDS011;10913;51.992;9.228;2023-07-16T06:31:59;4.38;;;2.20;;
21503;SDS011;10913;51.992;9.228;2023-07-16T06:34:24;6.78;;;2.42;;
21503;SDS011;10913;51.992;9.228;2023-07-16T06:36:50;3.17;;;1.77;;
21503;SDS011;10913;51.992;9.228;2023-07-16T06:39:16;4.88;;;2.40;;
21503;SDS011;10913;51.992;9.228;2023-07-16T06:41:41;6.18;;;2.85;;
21503;SDS011;10913;51.992;9.228;2023-07-16T06:44:07;5.25;;;2.30;;
21503;SDS011;10913;51.992;9.228;2023-07-16T06:46:32;5.05;;;2.60;;
21503;SDS011;10913;51.992;9.228;2023-07-16T06:48:57;5.65;;;2.63;;
21503;SDS011;10913;51.992;9.228;2023-07-16T06:51:23;4.57;;;2.33;;
21503;SDS011;10913;51.992;9.228;2023-07-16T06:53:48;5.15;;;2.50;;
21503;SDS011;10913;51.992;9.228;2023-07-16T06:56:14;6.70;;;2.72;;
21503;SDS011;10913;51.992;9.228;2023-07-16T06:58:39;6.53;;;3.00;;
21503;SDS011;10913;51.992;9.228;2023-07-16T07:01:05;4.78;;;2.80;;
21503;SDS011;10913;51.992;9.228;2023-07-16T07:03:30;4.95;;;2.80;;
21503;SDS011;10913;51.992;9.228;2023-07-16T07:05:58;5.90;;;2.80;;
21503;SDS011;10913;51.992;9.228;2023-07-16T07:08:23;6.35;;;2.60;;
21503;SDS011;10913;51.992;9.228;2023-07-16T07:10:49;4.60;;;2.70;;
21503;SDS011;10913;51.992;9.228;2023-07-16T07:13:15;4.38;;;2.40;;
21503;SDS011;10913;51.992;9.228;2023-07-16T07:15:41;6.75;;;2.83;;
21503;SDS011;10913;51.992;9.228;2023-07-16T07:18:07;5.10;;;2.72;;
21503;SDS011;10913;51.992;9.228;2023-07-16T07:20:32;6.03;;;2.97;;
21503;SDS011;10913;51.992;9.228;2023-07-16T07:22:57;5.47;;;2.92;;
21503;SDS011;10913;51.992;9.228;2023-07-16T07:25:27;5.15;;;2.90;;
21503;SDS011;10913;51.992;9.228;2023-07-16T07:27:52;5.63;;;2.95;;
21503;SDS011;10913;51.992;9.228;2023-07-16T07:30:18;4.47;;;2.80;;
21503;SDS011;10913;51.992;9.228;2023-07-16T07:32:43;5.75;;;2.60;;
21503;SDS011;10913;51.992;9.228;2023-07-16T07:35:08;4.32;;;2.50;;
21503;SDS011;10913;51.992;9.228;2023-07-16T07:37:34;7.13;;;2.38;;
21503;SDS011;10913;51.992;9.228;2023-07-16T07:39:59;4.47;;;2.55;;
21503;SDS011;10913;51.992;9.228;2023-07-16T07:42:25;4.97;;;2.70;;
21503;SDS011;10913;51.992;9.228;2023-07-16T07:44:52;6.55;;;2.85;;
21503;SDS011;10913;51.992;9.228;2023-07-16T07:47:17;5.03;;;3.00;;
21503;SDS011;10913;51.992;9.228;2023-07-16T07:49:42;6.25;;;2.80;;
21503;SDS011;10913;51.992;9.228;2023-07-16T07:52:08;4.28;;;2.50;;
21503;SDS011;10913;51.992;9.228;2023-07-16T07:54:33;5.70;;;2.50;;
21503;SDS011;10913;51.992;9.228;2023-07-16T07:57:00;5.93;;;2.90;;
21503;SDS011;10913;51.992;9.228;2023-07-16T07:59:28;4.63;;;2.88;;
21503;SDS011;10913;51.992;9.228;2023-07-16T08:01:54;3.90;;;3.00;;
21503;SDS011;10913;51.992;9.228;2023-07-16T08:04:20;6.38;;;2.90;;
21503;SDS011;10913;51.992;9.228;2023-07-16T08:06:45;4.40;;;2.70;;
21503;SDS011;10913;51.992;9.228;2023-07-16T08:09:10;10.95;;;3.13;;
21503;SDS011;10913;51.992;9.228;2023-07-16T08:11:36;5.18;;;2.70;;
21503;SDS011;10913;51.992;9.228;2023-07-16T08:14:01;4.70;;;2.95;;
21503;SDS011;10913;51.992;9.228;2023-07-16T08:16:27;4.93;;;2.67;;
21503;SDS011;10913;51.992;9.228;2023-07-16T08:18:52;5.95;;;3.28;;
21503;SDS011;10913;51.992;9.228;2023-07-16T08:21:17;3.75;;;2.35;;
21503;SDS011;10913;51.992;9.228;2023-07-16T08:23:46;6.15;;;2.80;;
21503;SDS011;10913;51.992;9.228;2023-07-16T08:26:12;4.95;;;2.70;;
21503;SDS011;10913;51.992;9.228;2023-07-16T08:28:37;6.07;;;2.60;;
21503;SDS011;10913;51.992;9.228;2023-07-16T08:31:03;7.20;;;3.15;;
21503;SDS011;10913;51.992;9.228;2023-07-16T08:33:28;6.32;;;3.00;;
21503;SDS011;10913;51.992;9.228;2023-07-16T08:35:54;4.75;;;2.63;;
21503;SDS011;10913;51.992;9.228;2023-07-16T08:38:19;6.90;;;2.90;;
21503;SDS011;10913;51.992;9.228;2023-07-16T08:40:44;4.65;;;2.60;;
21503;SDS011;10913;51.992;9.228;2023-07-16T08:43:13;4.53;;;2.47;;
21503;SDS011;10913;51.992;9.228;2023-07-16T08:45:41;5.88;;;2.80;;
21503;SDS011;10913;51.992;9.228;2023-07-16T08:48:09;3.65;;;2.50;;
21503;SDS011;10913;51.992;9.228;2023-07-16T08:50:35;7.22;;;2.88;;
21503;SDS011;10913;51.992;9.228;2023-07-16T08:53:03;4.35;;;2.50;;
21503;SDS011;10913;51.992;9.228;2023-07-16T08:55:30;5.47;;;2.78;;
21503;SDS011;10913;51.992;9.228;2023-07-16T08:57:55;4.30;;;2.40;;
21503;SDS011;10913;51.992;9.228;2023-07-16T09:00:21;6.10;;;2.42;;
21503;SDS011;10913;51.992;9.228;2023-07-16T09:02:48;5.72;;;2.28;;
21503;SDS011;10913;51.992;9.228;2023-07-16T09:05:14;6.57;;;2.25;;
21503;SDS011;10913;51.992;9.228;2023-07-16T09:07:40;4.18;;;2.25;;
21503;SDS011;10913;51.992;9.228;2023-07-16T09:10:05;4.22;;;2.75;;
21503;SDS011;10913;51.992;9.228;2023-07-16T09:12:31;5.05;;;2.70;;
21503;SDS011;10913;51.992;9.228;2023-07-16T09:14:57;3.72;;;2.60;;
21503;SDS011;10913;51.992;9.228;2023-07-16T09:17:22;4.80;;;2.53;;
21503;SDS011;10913;51.992;9.228;2023-07-16T09:19:50;3.22;;;2.60;;
21503;SDS011;10913;51.992;9.228;2023-07-16T09:22:19;4.80;;;2.65;;
21503;SDS011;10913;51.992;9.228;2023-07-16T09:24:46;4.03;;;2.70;;
21503;SDS011;10913;51.992;9.228;2023-07-16T09:27:12;4.75;;;2.90;;
21503;SDS011;10913;51.992;9.228;2023-07-16T09:29:38;6.40;;;2.60;;
21503;SDS011;10913;51.992;9.228;2023-07-16T09:32:03;3.42;;;2.63;;
21503;SDS011;10913;51.992;9.228;2023-07-16T09:34:32;4.28;;;2.95;;
21503;SDS011;10913;51.992;9.228;2023-07-16T09:36:58;4.75;;;2.95;;
21503;SDS011;10913;51.992;9.228;2023-07-16T09:39:25;4.60;;;2.80;;
21503;SDS011;10913;51.992;9.228;2023-07-16T09:41:51;6.03;;;3.03;;
21503;SDS011;10913;51.992;9.228;2023-07-16T09:44:17;5.32;;;3.60;;
21503;SDS011;10913;51.992;9.228;2023-07-16T09:46:43;3.97;;;3.20;;
21503;SDS011;10913;51.992;9.228;2023-07-16T09:49:10;6.28;;;3.28;;
21503;SDS011;10913;51.992;9.228;2023-07-16T09:51:36;4.72;;;3.20;;
21503;SDS011;10913;51.992;9.228;2023-07-16T09:54:03;6.70;;;3.20;;
21503;SDS011;10913;51.992;9.228;2023-07-16T09:56:32;5.20;;;3.08;;
21503;SDS011;10913;51.992;9.228;2023-07-16T09:59:11;5.63;;;3.30;;
21503;SDS011;10913;51.992;9.228;2023-07-16T10:01:39;5.80;;;3.22;;
21503;SDS011;10913;51.992;9.228;2023-07-16T10:06:36;5.68;;;3.20;;
21503;SDS011;10913;51.992;9.228;2023-07-16T10:09:02;4.30;;;3.13;;
21503;SDS011;10913;51.992;9.228;2023-07-16T10:11:27;4.88;;;3.20;;
21503;SDS011;10913;51.992;9.228;2023-07-16T10:13:52;5.72;;;3.47;;
21503;SDS011;10913;51.992;9.228;2023-07-16T10:16:21;7.47;;;3.08;;
21503;SDS011;10913;51.992;9.228;2023-07-16T10:18:51;5.70;;;3.20;;
21503;SDS011;10913;51.992;9.228;2023-07-16T10:21:23;5.15;;;3.05;;
21503;SDS011;10913;51.992;9.228;2023-07-16T10:23:56;4.20;;;3.20;;
21503;SDS011;10913;51.992;9.228;2023-07-16T10:26:26;4.07;;;3.20;;
21503;SDS011;10913;51.992;9.228;2023-07-16T10:28:53;4.50;;;2.70;;
21503;SDS011;10913;51.992;9.228;2023-07-16T10:31:22;3.67;;;2.63;;
21503;SDS011;10913;51.992;9.228;2023-07-16T10:33:58;4.78;;;2.90;;
21503;SDS011;10913;51.992;9.228;2023-07-16T10:36:23;4.20;;;3.08;;
21503;SDS011;10913;51.992;9.228;2023-07-16T10:38:48;5.90;;;3.35;;
21503;SDS011;10913;51.992;9.228;2023-07-16T10:41:14;4.82;;;3.10;;
21503;SDS011;10913;51.992;9.228;2023-07-16T10:43:39;3.45;;;2.88;;
21503;SDS011;10913;51.992;9.228;2023-07-16T10:46:05;4.55;;;2.88;;
21503;SDS011;10913;51.992;9.228;2023-07-16T10:48:30;4.18;;;2.90;;
21503;SDS011;10913;51.992;9.228;2023-07-16T10:50:56;5.07;;;3.03;;
21503;SDS011;10913;51.992;9.228;2023-07-16T10:53:21;4.03;;;2.83;;
21503;SDS011;10913;51.992;9.228;2023-07-16T10:55:47;5.75;;;3.50;;
21503;SDS011;10913;51.992;9.228;2023-07-16T10:58:12;6.82;;;3.80;;
21503;SDS011;10913;51.992;9.228;2023-07-16T11:00:39;4.80;;;3.00;;
21503;SDS011;10913;51.992;9.228;2023-07-16T11:03:04;3.75;;;2.80;;
21503;SDS011;10913;51.992;9.228;2023-07-16T11:05:30;4.50;;;3.22;;
21503;SDS011;10913;51.992;9.228;2023-07-16T11:07:56;4.88;;;2.92;;
21503;SDS011;10913;51.992;9.228;2023-07-16T11:10:22;4.50;;;2.90;;
21503;SDS011;10913;51.992;9.228;2023-07-16T11:12:52;3.85;;;3.00;;
21503;SDS011;10913;51.992;9.228;2023-07-16T11:15:33;2.80;;;2.60;;
21503;SDS011;10913;51.992;9.228;2023-07-16T11:17:59;6.15;;;2.85;;
21503;SDS011;10913;51.992;9.228;2023-07-16T11:20:26;4.30;;;3.08;;
21503;SDS011;10913;51.992;9.228;2023-07-16T11:22:51;5.00;;;3.13;;
21503;SDS011;10913;51.992;9.228;2023-07-16T11:25:17;3.22;;;2.67;;
21503;SDS011;10913;51.992;9.228;2023-07-16T11:27:43;4.53;;;3.20;;
21503;SDS011;10913;51.992;9.228;2023-07-16T11:30:09;4.93;;;3.08;;
21503;SDS011;10913;51.992;9.228;2023-07-16T11:35:03;4.20;;;3.15;;
21503;SDS011;10913;51.992;9.228;2023-07-16T11:37:32;4.43;;;3.00;;
21503;SDS011;10913;51.992;9.228;2023-07-16T11:40:03;3.25;;;2.92;;
21503;SDS011;10913;51.992;9.228;2023-07-16T11:42:33;3.85;;;2.97;;
21503;SDS011;10913;51.992;9.228;2023-07-16T11:45:00;4.22;;;3.10;;
21503;SDS011;10913;51.992;9.228;2023-07-16T11:47:27;3.30;;;2.55;;
21503;SDS011;10913;51.992;9.228;2023-07-16T11:49:53;4.00;;;2.75;;
21503;SDS011;10913;51.992;9.228;2023-07-16T11:52:25;5.03;;;2.90;;
21503;SDS011;10913;51.992;9.228;2023-07-16T11:54:52;4.93;;;3.03;;
21503;SDS011;10913;51.992;9.228;2023-07-16T11:57:18;4.65;;;2.50;;
21503;SDS011;10913;51.992;9.228;2023-07-16T11:59:44;5.82;;;3.10;;
21503;SDS011;10913;51.992;9.228;2023-07-16T12:02:09;4.68;;;2.85;;
21503;SDS011;10913;51.992;9.228;2023-07-16T12:04:34;3.40;;;2.65;;
21503;SDS011;10913;51.992;9.228;2023-07-16T12:07:00;4.18;;;2.85;;
21503;SDS011;10913;51.992;9.228;2023-07-16T12:09:25;3.10;;;2.80;;
21503;SDS011;10913;51.992;9.228;2023-07-16T12:11:51;4.47;;;2.58;;
21503;SDS011;10913;51.992;9.228;2023-07-16T12:14:16;2.83;;;2.63;;
21503;SDS011;10913;51.992;9.228;2023-07-16T12:16:41;4.97;;;3.17;;
21503;SDS011;10913;51.992;9.228;2023-07-16T12:19:08;4.78;;;2.83;;
21503;SDS011;10913;51.992;9.228;2023-07-16T12:21:34;3.70;;;2.92;;
21503;SDS011;10913;51.992;9.228;2023-07-16T12:24:00;3.88;;;3.00;;
21503;SDS011;10913;51.992;9.228;2023-07-16T12:26:25;4.20;;;3.10;;
21503;SDS011;10913;51.992;9.228;2023-07-16T12:28:51;4.70;;;3.00;;
21503;SDS011;10913;51.992;9.228;2023-07-16T12:31:17;4.97;;;2.85;;
21503;SDS011;10913;51.992;9.228;2023-07-16T12:33:43;4.20;;;2.80;;
21503;SDS011;10913;51.992;9.228;2023-07-16T12:36:09;4.13;;;2.72;;
21503;SDS011;10913;51.992;9.228;2023-07-16T12:38:34;4.25;;;3.20;;
21503;SDS011;10913;51.992;9.228;2023-07-16T12:40:59;5.07;;;3.15;;
21503;SDS011;10913;51.992;9.228;2023-07-16T12:43:25;3.42;;;2.67;;
21503;SDS011;10913;51.992;9.228;2023-07-16T12:45:50;4.60;;;3.00;;
21503;SDS011;10913;51.992;9.228;2023-07-16T12:48:16;3.75;;;3.13;;
21503;SDS011;10913;51.992;9.228;2023-07-16T12:50:41;3.97;;;2.75;;
21503;SDS011;10913;51.992;9.228;2023-07-16T12:53:07;3.72;;;2.67;;
21503;SDS011;10913;51.992;9.228;2023-07-16T12:55:32;3.38;;;2.80;;
21503;SDS011;10913;51.992;9.228;2023-07-16T12:57:58;3.72;;;2.58;;
21503;SDS011;10913;51.992;9.228;2023-07-16T13:00:24;3.75;;;2.85;;
21503;SDS011;10913;51.992;9.228;2023-07-16T13:02:49;5.43;;;2.67;;
21503;SDS011;10913;51.992;9.228;2023-07-16T13:05:15;4.45;;;3.15;;
21503;SDS011;10913;51.992;9.228;2023-07-16T13:07:40;3.72;;;3.00;;
21503;SDS011;10913;51.992;9.228;2023-07-16T13:10:06;4.60;;;3.03;;
21503;SDS011;10913;51.992;9.228;2023-07-16T13:12:33;4.28;;;3.10;;
21503;SDS011;10913;51.992;9.228;2023-07-16T13:14:58;4.10;;;3.20;;
21503;SDS011;10913;51.992;9.228;2023-07-16T13:17:23;4.70;;;3.58;;
21503;SDS011;10913;51.992;9.228;2023-07-16T13:19:50;4.28;;;3.20;;
21503;SDS011;10913;51.992;9.228;2023-07-16T13:22:15;5.20;;;3.30;;
21503;SDS011;10913;51.992;9.228;2023-07-16T13:24:40;4.57;;;3.50;;
21503;SDS011;10913;51.992;9.228;2023-07-16T13:27:06;5.60;;;3.60;;
21503;SDS011;10913;51.992;9.228;2023-07-16T13:29:31;3.78;;;3.20;;
21503;SDS011;10913;51.992;9.228;2023-07-16T13:31:57;4.38;;;3.50;;
21503;SDS011;10913;51.992;9.228;2023-07-16T13:34:22;4.10;;;3.60;;
21503;SDS011;10913;51.992;9.228;2023-07-16T13:36:47;4.78;;;3.60;;
21503;SDS011;10913;51.992;9.228;2023-07-16T13:39:13;3.92;;;3.53;;
21503;SDS011;10913;51.992;9.228;2023-07-16T13:41:38;4.78;;;3.00;;
21503;SDS011;10913;51.992;9.228;2023-07-16T13:44:04;4.70;;;3.63;;
21503;SDS011;10913;51.992;9.228;2023-07-16T13:46:30;5.18;;;3.50;;
21503;SDS011;10913;51.992;9.228;2023-07-16T13:48:55;4.97;;;3.70;;
21503;SDS011;10913;51.992;9.228;2023-07-16T13:51:22;6.03;;;3.40;;
21503;SDS011;10913;51.992;9.228;2023-07-16T13:53:47;5.80;;;3.60;;
21503;SDS011;10913;51.992;9.228;2023-07-16T13:56:13;5.10;;;3.38;;
21503;SDS011;10913;51.992;9.228;2023-07-16T13:58:38;5.00;;;3.40;;
21503;SDS011;10913;51.992;9.228;2023-07-16T14:01:03;3.63;;;3.30;;
21503;SDS011;10913;51.992;9.228;2023-07-16T14:03:29;3.80;;;3.00;;
21503;SDS011;10913;51.992;9.228;2023-07-16T14:05:54;3.95;;;3.20;;
21503;SDS011;10913;51.992;9.228;2023-07-16T14:08:19;3.63;;;2.88;;
21503;SDS011;10913;51.992;9.228;2023-07-16T14:10:45;4.22;;;3.33;;
21503;SDS011;10913;51.992;9.228;2023-07-16T14:13:10;4.32;;;3.47;;
21503;SDS011;10913;51.992;9.228;2023-07-16T14:15:37;3.72;;;3.13;;
21503;SDS011;10913;51.992;9.228;2023-07-16T14:18:03;3.40;;;3.10;;
21503;SDS011;10913;51.992;9.228;2023-07-16T14:20:28;4.50;;;3.15;;
21503;SDS011;10913;51.992;9.228;2023-07-16T14:22:54;4.68;;;3.22;;
21503;SDS011;10913;51.992;9.228;2023-07-16T14:25:19;4.47;;;2.92;;
21503;SDS011;10913;51.992;9.228;2023-07-16T14:27:44;3.00;;;2.58;;
21503;SDS011;10913;51.992;9.228;2023-07-16T14:30:10;3.90;;;3.05;;
21503;SDS011;10913;51.992;9.228;2023-07-16T14:32:35;3.72;;;2.92;;
21503;SDS011;10913;51.992;9.228;2023-07-16T14:35:01;4.07;;;2.90;;
21503;SDS011;10913;51.992;9.228;2023-07-16T14:37:27;4.50;;;3.28;;
21503;SDS011;10913;51.992;9.228;2023-07-16T14:39:52;5.07;;;3.00;;
21503;SDS011;10913;51.992;9.228;2023-07-16T14:42:18;3.45;;;2.85;;
21503;SDS011;10913;51.992;9.228;2023-07-16T14:44:45;5.65;;;2.88;;
21503;SDS011;10913;51.992;9.228;2023-07-16T14:47:11;3.63;;;3.08;;
21503;SDS011;10913;51.992;9.228;2023-07-16T14:49:36;4.22;;;2.90;;
21503;SDS011;10913;51.992;9.228;2023-07-16T14:52:02;3.38;;;3.00;;